Time;durP1;ratioP1;P1;durP2;ratioP2;P2;SDS_P1;SDS_P2;PMS_P1;PMS_P2;Temp;Humidity;BMP_temperature;BMP_pressure;BME280_temperature;BME280_humidity;BME280_pressure;Samples;Min_cycle;Max_cycle;Signal;HPM_P1;HPM_P2
2022/04/01 00:00:33;;;;;;;1.52;0.60;;;18.90;99.90;;;;;;5030890;28;20419;-93
2022/04/01 00:03:00;;;;;;;3.50;0.70;;;18.90;99.90;;;;;;5031090;28;20458;-90
2022/04/01 00:05:27;;;;;;;10.53;1.10;;;18.90;99.90;;;;;;5031393;28;20379;-92
2022/04/01 00:07:57;;;;;;;10.30;1.20;;;19.10;99.90;;;;;;5031417;28;20382;-86
2022/04/01 00:10:24;;;;;;;7.00;0.90;;;19.20;99.90;;;;;;5031543;28;20411;-86
2022/04/01 00:12:51;;;;;;;3.67;0.60;;;19.30;99.90;;;;;;5046689;28;20373;-79
2022/04/01 00:15:18;;;;;;;9.45;0.88;;;19.10;99.90;;;;;;5031463;28;20389;-92
2022/04/01 00:17:46;;;;;;;5.32;0.60;;;19.20;99.90;;;;;;5030835;28;20389;-86
2022/04/01 00:20:14;;;;;;;3.00;0.70;;;19.00;99.90;;;;;;5030455;28;20484;-83
2022/04/01 00:22:43;;;;;;;1.83;0.60;;;18.80;99.90;;;;;;5030565;28;20484;-90
2022/04/01 00:25:11;;;;;;;3.90;0.50;;;19.00;99.90;;;;;;5030572;28;20369;-84
2022/04/01 00:27:38;;;;;;;2.03;0.50;;;19.10;99.90;;;;;;5030945;28;20462;-88
2022/04/01 00:30:06;;;;;;;3.05;0.55;;;19.40;99.90;;;;;;5030683;28;20383;-81
2022/04/01 00:32:34;;;;;;;8.50;1.10;;;19.10;99.90;;;;;;5030984;28;20436;-79
2022/04/01 00:35:02;;;;;;;11.98;1.00;;;19.00;99.90;;;;;;5030390;28;20431;-91
2022/04/01 00:37:29;;;;;;;13.13;1.25;;;19.00;99.90;;;;;;5030280;28;20436;-82
2022/04/01 00:39:57;;;;;;;4.03;0.70;;;19.10;99.90;;;;;;5030405;28;20891;-84
2022/04/01 00:42:26;;;;;;;3.13;0.70;;;19.30;99.90;;;;;;5030897;28;20381;-90
2022/04/01 00:44:53;;;;;;;3.25;0.70;;;19.50;99.90;;;;;;5030280;28;20432;-91
2022/04/01 00:47:20;;;;;;;4.63;0.80;;;19.50;99.90;;;;;;5029932;28;20465;-89
2022/04/01 00:49:48;;;;;;;2.77;0.70;;;19.80;99.90;;;;;;5032116;28;20412;-79
2022/04/01 00:52:22;;;;;;;7.35;0.93;;;19.90;99.90;;;;;;5030010;28;20817;-89
2022/04/01 00:54:52;;;;;;;10.15;1.00;;;20.10;99.90;;;;;;5029597;28;20376;-87
2022/04/01 00:57:20;;;;;;;7.20;1.00;;;20.10;99.30;;;;;;5029768;28;20393;-91
2022/04/01 00:59:52;;;;;;;1.02;0.57;;;20.20;99.90;;;;;;5029851;28;20738;-90
2022/04/01 01:02:19;;;;;;;2.60;0.50;;;20.00;99.90;;;;;;5029798;28;20374;-90
2022/04/01 01:04:47;;;;;;;8.77;0.80;;;19.90;99.90;;;;;;5029691;28;20378;-89
2022/04/01 01:07:15;;;;;;;11.52;0.80;;;20.00;99.20;;;;;;5030333;28;20374;-93
2022/04/01 01:09:43;;;;;;;8.32;1.00;;;20.00;99.90;;;;;;5031028;28;20891;-89
2022/04/01 01:12:11;;;;;;;3.30;0.55;;;19.80;99.90;;;;;;5030154;28;20385;-91
2022/04/01 01:14:40;;;;;;;1.53;0.50;;;19.50;99.90;;;;;;5035479;28;20383;-79
2022/04/01 01:17:12;;;;;;;2.92;0.57;;;19.20;99.90;;;;;;5040665;28;20477;-80
2022/04/01 01:19:40;;;;;;;2.10;0.40;;;19.20;99.90;;;;;;5032796;28;20385;-88
2022/04/01 01:22:08;;;;;;;3.63;0.70;;;19.40;99.90;;;;;;5029756;28;20374;-89
2022/04/01 01:24:37;;;;;;;3.23;0.70;;;19.40;99.90;;;;;;5029936;28;20444;-87
2022/04/01 01:27:06;;;;;;;2.65;0.60;;;19.40;99.90;;;;;;5030016;28;20742;-88
2022/04/01 01:29:34;;;;;;;5.18;0.70;;;19.40;99.90;;;;;;5031244;28;20425;-84
2022/04/01 01:32:04;;;;;;;2.07;0.43;;;19.40;99.90;;;;;;5031395;28;20377;-93
2022/04/01 01:34:34;;;;;;;1.85;0.40;;;19.50;99.90;;;;;;5031384;28;20385;-95
2022/04/01 01:37:03;;;;;;;4.82;0.80;;;19.80;99.90;;;;;;5032237;28;20474;-89
2022/04/01 01:39:31;;;;;;;5.97;0.82;;;19.90;99.60;;;;;;5034219;28;20390;-90
2022/04/01 01:41:58;;;;;;;6.85;0.80;;;19.90;99.80;;;;;;5040335;28;20377;-81
2022/04/01 01:44:25;;;;;;;3.70;0.50;;;19.90;99.80;;;;;;5017859;28;20415;-78
2022/04/01 01:46:55;;;;;;;5.27;0.50;;;20.10;99.90;;;;;;5029304;28;20378;-89
2022/04/01 01:49:22;;;;;;;6.90;0.70;;;20.00;98.80;;;;;;5011562;28;20381;-84
2022/04/01 01:54:54;;;;;;;3.78;0.50;;;19.90;98.00;;;;;;5029482;28;20498;-83
2022/04/01 01:57:23;;;;;;;0.88;0.40;;;19.80;98.80;;;;;;5029380;28;20415;-90
2022/04/01 01:59:51;;;;;;;2.15;0.30;;;19.80;99.20;;;;;;5028799;28;20386;-90
2022/04/01 02:02:19;;;;;;;0.90;0.40;;;19.60;99.90;;;;;;5028768;28;20378;-84
2022/04/01 02:04:48;;;;;;;2.63;0.40;;;19.60;99.20;;;;;;5028778;28;20386;-79
2022/04/01 02:07:15;;;;;;;2.08;0.50;;;19.60;99.90;;;;;;5028737;28;20377;-78
2022/04/01 02:09:46;;;;;;;0.85;0.25;;;19.80;99.80;;;;;;5028992;28;20469;-88
2022/04/01 02:12:16;;;;;;;1.33;0.30;;;19.70;99.30;;;;;;5028652;28;20426;-83
2022/04/01 02:14:43;;;;;;;1.50;0.40;;;19.60;99.90;;;;;;5028649;28;20386;-88
2022/04/01 02:17:10;;;;;;;1.03;0.30;;;19.60;99.90;;;;;;5028826;28;20849;-88
2022/04/01 02:19:37;;;;;;;0.85;0.30;;;19.60;99.90;;;;;;5028984;28;20913;-89
2022/04/01 02:22:07;;;;;;;1.10;0.40;;;19.60;99.80;;;;;;5028999;28;20858;-88
2022/04/01 02:24:36;;;;;;;2.17;0.40;;;19.60;99.90;;;;;;5028980;28;20461;-88
2022/04/01 02:27:03;;;;;;;9.02;1.00;;;19.70;99.10;;;;;;5011006;28;20378;-85
2022/04/01 02:29:30;;;;;;;1.58;0.30;;;19.80;98.90;;;;;;5028937;28;20818;-91
2022/04/01 02:31:58;;;;;;;1.88;0.50;;;19.60;98.80;;;;;;5030251;28;20381;-92
2022/04/01 02:34:26;;;;;;;5.93;0.77;;;19.50;99.00;;;;;;5012026;28;20803;-87
2022/04/01 02:36:58;;;;;;;1.23;0.47;;;19.70;98.60;;;;;;5042174;28;20372;-82
2022/04/01 02:39:26;;;;;;;3.30;0.60;;;19.60;98.60;;;;;;5044104;28;20451;-87
2022/04/01 02:41:53;;;;;;;2.58;0.60;;;19.30;99.50;;;;;;5032057;28;20369;-81
2022/04/01 02:44:20;;;;;;;2.88;0.50;;;19.20;99.50;;;;;;5032357;28;20479;-91
2022/04/01 02:46:47;;;;;;;1.73;0.60;;;19.00;99.90;;;;;;5032512;28;20385;-87
2022/04/01 02:49:16;;;;;;;1.80;0.70;;;18.90;99.90;;;;;;5032168;28;20405;-81
2022/04/01 02:51:45;;;;;;;3.10;0.70;;;19.00;99.90;;;;;;5032080;28;20373;-81
2022/04/01 02:54:13;;;;;;;3.22;0.60;;;19.20;99.90;;;;;;5032185;28;20374;-80
2022/04/01 02:56:41;;;;;;;6.37;0.90;;;19.30;99.90;;;;;;5032085;28;20389;-88
2022/04/01 02:59:10;;;;;;;9.37;1.10;;;19.30;99.40;;;;;;5032008;28;20401;-90
2022/04/01 03:01:38;;;;;;;2.10;0.60;;;19.20;99.90;;;;;;5032171;28;20381;-86
2022/04/01 03:04:10;;;;;;;4.65;0.80;;;19.10;99.90;;;;;;5032428;28;20859;-88
2022/04/01 03:06:43;;;;;;;2.72;0.60;;;19.10;99.90;;;;;;5032481;28;20747;-79
2022/04/01 03:09:11;;;;;;;3.38;0.70;;;19.30;99.70;;;;;;5032449;28;20460;-88
2022/04/01 03:11:39;;;;;;;2.00;0.60;;;19.10;99.30;;;;;;5031680;28;20388;-83
2022/04/01 03:14:08;;;;;;;3.10;0.70;;;19.10;99.90;;;;;;5031784;28;20388;-92
2022/04/01 03:16:39;;;;;;;4.32;0.90;;;19.00;99.90;;;;;;5031955;28;20925;-87
2022/04/01 03:19:10;;;;;;;2.95;0.90;;;19.10;99.60;;;;;;5014329;28;20804;-85
2022/04/01 03:21:41;;;;;;;3.85;1.08;;;19.10;99.90;;;;;;5032051;28;20401;-80
2022/04/01 03:24:10;;;;;;;1.83;0.70;;;19.10;99.90;;;;;;5032523;28;20376;-87
2022/04/01 03:26:38;;;;;;;3.58;0.80;;;19.10;99.50;;;;;;5038368;28;20413;-90
2022/04/01 03:29:10;;;;;;;3.60;0.80;;;19.10;99.90;;;;;;5037304;28;20396;-81
2022/04/01 03:31:38;;;;;;;5.35;1.10;;;19.20;99.60;;;;;;5037051;28;20717;-84
2022/04/01 03:34:06;;;;;;;3.17;0.90;;;19.20;99.10;;;;;;5032853;28;20382;-79
2022/04/01 03:36:35;;;;;;;2.70;0.80;;;19.10;99.90;;;;;;5032396;28;20381;-89
2022/04/01 03:39:03;;;;;;;3.10;0.90;;;19.10;99.60;;;;;;5031641;28;20405;-89
2022/04/01 03:41:31;;;;;;;4.53;1.10;;;19.10;99.70;;;;;;5031599;28;20369;-84
2022/04/01 03:44:00;;;;;;;3.70;1.00;;;19.10;99.70;;;;;;5030924;28;20485;-86
2022/04/01 03:46:40;;;;;;;4.05;1.00;;;19.10;99.70;;;;;;5031631;28;20385;-79
2022/04/01 03:49:08;;;;;;;4.82;1.00;;;19.10;99.90;;;;;;5032500;28;20825;-88
2022/04/01 03:51:38;;;;;;;5.97;1.40;;;19.20;98.90;;;;;;5031163;28;20452;-85
2022/04/01 03:54:05;;;;;;;3.80;1.17;;;19.20;98.30;;;;;;5030755;28;20687;-82
2022/04/01 03:56:37;;;;;;;6.15;1.10;;;19.20;98.90;;;;;;5031482;28;20381;-87
2022/04/01 03:59:11;;;;;;;6.60;1.40;;;19.20;98.30;;;;;;5031236;28;20401;-84
2022/04/01 04:01:39;;;;;;;4.55;1.30;;;19.00;98.80;;;;;;5031332;28;20429;-90
2022/04/01 04:04:08;;;;;;;5.22;1.33;;;19.00;99.40;;;;;;5031110;28;20464;-91
2022/04/01 04:06:35;;;;;;;5.75;1.20;;;19.00;98.90;;;;;;5031145;28;20377;-87
2022/04/01 04:09:03;;;;;;;4.38;1.20;;;19.00;99.00;;;;;;5030924;28;20880;-87
2022/04/01 04:11:32;;;;;;;9.65;1.27;;;19.00;99.40;;;;;;5031772;28;20373;-87
2022/04/01 04:14:01;;;;;;;5.93;1.40;;;19.10;99.20;;;;;;5031218;28;20481;-87
2022/04/01 04:16:40;;;;;;;12.88;1.80;;;19.10;98.60;;;;;;5030826;28;20461;-83
2022/04/01 04:19:19;;;;;;;6.55;1.45;;;19.20;98.00;;;;;;5030805;28;20409;-91
2022/04/01 04:21:56;;;;;;;8.60;1.20;;;19.20;98.70;;;;;;5030887;28;20404;-88
2022/04/01 04:24:30;;;;;;;6.70;1.30;;;19.30;98.20;;;;;;5032428;28;20460;-85
2022/04/01 04:27:11;;;;;;;7.20;1.45;;;19.20;98.30;;;;;;5032024;28;20365;-91
2022/04/01 04:29:50;;;;;;;7.40;1.50;;;19.30;98.20;;;;;;5045330;28;20434;-88
2022/04/01 04:32:47;;;;;;;5.28;1.20;;;19.40;98.30;;;;;;5048204;28;20413;-89
2022/04/01 04:35:16;;;;;;;6.13;1.40;;;19.60;97.50;;;;;;5039813;28;20369;-82
2022/04/01 04:37:45;;;;;;;9.07;1.33;;;19.60;98.20;;;;;;5032507;28;20429;-88
2022/04/01 04:40:17;;;;;;;6.03;1.30;;;19.70;97.00;;;;;;5030109;28;20385;-86
2022/04/01 04:42:53;;;;;;;6.53;1.30;;;19.60;96.90;;;;;;5029521;28;20382;-85
2022/04/01 04:45:21;;;;;;;5.05;1.20;;;20.30;95.70;;;;;;5030139;28;20877;-87
2022/04/01 04:47:49;;;;;;;5.53;1.20;;;20.00;95.20;;;;;;5029832;28;20388;-84
2022/04/01 04:50:18;;;;;;;2.83;1.20;;;19.70;96.40;;;;;;5029778;28;20858;-83
2022/04/01 04:52:51;;;;;;;3.90;0.93;;;19.40;97.10;;;;;;5029612;28;20395;-83
2022/04/01 04:55:20;;;;;;;5.83;1.40;;;19.10;97.80;;;;;;5012509;28;20746;-85
2022/04/01 04:57:48;;;;;;;4.47;1.20;;;19.10;98.10;;;;;;5029996;28;20403;-88
2022/04/01 05:00:19;;;;;;;7.43;1.38;;;19.10;98.00;;;;;;5013515;28;20460;-90
2022/04/01 05:03:13;;;;;;;8.80;1.40;;;19.10;97.50;;;;;;5030251;28;20389;-89
2022/04/01 05:05:45;;;;;;;5.22;1.30;;;19.20;98.20;;;;;;5030024;28;20368;-90
2022/04/01 05:08:35;;;;;;;8.53;1.40;;;19.30;97.20;;;;;;5031370;28;20369;-84
2022/04/01 05:11:06;;;;;;;6.93;1.10;;;19.20;97.30;;;;;;5048893;28;20384;-78
2022/04/01 05:14:06;;;;;;;7.05;1.35;;;19.30;98.10;;;;;;5046870;28;20404;-81
2022/04/01 05:16:48;;;;;;;7.18;1.20;;;19.10;97.50;;;;;;5035797;28;20385;-81
2022/04/01 05:19:26;;;;;;;5.07;1.20;;;19.30;97.40;;;;;;5048297;28;20432;-83
2022/04/01 05:22:01;;;;;;;5.35;1.10;;;19.20;98.00;;;;;;5045687;28;20397;-81
2022/04/01 05:24:33;;;;;;;3.65;1.15;;;19.20;98.40;;;;;;5047744;28;20385;-83
2022/04/01 05:27:05;;;;;;;6.75;1.27;;;19.00;98.40;;;;;;5052141;28;20378;-83
2022/04/01 05:29:40;;;;;;;5.35;1.30;;;19.00;98.40;;;;;;5047646;28;20378;-84
2022/04/01 05:32:13;;;;;;;4.30;1.20;;;19.60;96.90;;;;;;5050349;28;20370;-82
2022/04/01 05:34:49;;;;;;;5.93;1.20;;;19.90;95.60;;;;;;5044144;28;20365;-83
2022/04/01 05:37:18;;;;;;;7.65;1.40;;;19.40;97.00;;;;;;5029456;28;20396;-85
2022/04/01 05:39:49;;;;;;;8.07;1.45;;;19.20;97.50;;;;;;5028868;28;20377;-85
2022/04/01 05:42:18;;;;;;;6.05;1.38;;;19.30;97.30;;;;;;5029137;28;20370;-82
2022/04/01 05:44:46;;;;;;;9.05;1.50;;;19.40;97.30;;;;;;5028530;28;20400;-87
2022/04/01 05:47:13;;;;;;;5.68;1.25;;;19.60;96.40;;;;;;5028967;28;20877;-83
2022/04/01 05:49:46;;;;;;;5.63;1.40;;;19.60;96.60;;;;;;5010915;28;20390;-84
2022/04/01 05:52:13;;;;;;;5.35;1.40;;;19.30;96.00;;;;;;5028554;28;20377;-86
2022/04/01 05:54:42;;;;;;;6.55;1.65;;;19.20;96.70;;;;;;5028721;28;20377;-87
2022/04/01 05:57:15;;;;;;;5.80;1.42;;;19.10;97.00;;;;;;5028531;28;20388;-82
2022/04/01 05:59:42;;;;;;;6.50;1.67;;;19.10;97.20;;;;;;5028798;28;20388;-85
2022/04/01 06:02:48;;;;;;;4.93;1.40;;;19.00;97.80;;;;;;5028628;28;20399;-81
2022/04/01 06:05:21;;;;;;;6.55;1.58;;;19.00;97.40;;;;;;5028646;28;20453;-86
2022/04/01 06:07:55;;;;;;;4.28;1.50;;;19.00;97.20;;;;;;5028493;28;20880;-85
2022/04/01 06:10:35;;;;;;;6.93;1.50;;;18.80;97.80;;;;;;5028551;28;20384;-82
2022/04/01 06:13:20;;;;;;;6.68;1.50;;;18.80;97.30;;;;;;5028940;28;20383;-84
2022/04/01 06:16:03;;;;;;;6.03;1.48;;;18.70;97.70;;;;;;5028800;28;20508;-83
2022/04/01 06:18:53;;;;;;;5.10;1.50;;;18.80;97.40;;;;;;5032520;28;20907;-83
2022/04/01 06:21:23;;;;;;;5.78;1.42;;;18.70;97.70;;;;;;5032320;28;20388;-79
2022/04/01 06:23:59;;;;;;;5.70;1.60;;;18.60;97.90;;;;;;5033757;28;20695;-83
2022/04/01 06:26:28;;;;;;;5.68;1.60;;;18.70;98.10;;;;;;5040273;28;20365;-83
2022/04/01 06:29:34;;;;;;;5.93;1.40;;;18.80;98.10;;;;;;5032297;28;20381;-82
2022/04/01 06:32:08;;;;;;;6.57;1.65;;;19.00;96.60;;;;;;4971400;28;20375;-83
2022/04/01 06:34:42;;;;;;;7.70;1.57;;;19.00;97.50;;;;;;4971832;28;20867;-85
2022/04/01 06:37:15;;;;;;;4.85;1.60;;;18.80;97.30;;;;;;4971967;28;20432;-89
2022/04/01 06:40:06;;;;;;;7.13;1.60;;;18.70;97.50;;;;;;4971596;28;20851;-84
2022/04/01 06:42:37;;;;;;;5.80;1.60;;;18.70;97.70;;;;;;4970739;28;20391;-82
2022/04/01 06:45:06;;;;;;;7.70;1.42;;;18.70;97.30;;;;;;4951940;29;20814;-83
2022/04/01 06:47:34;;;;;;;7.57;1.70;;;18.60;97.30;;;;;;4951631;29;20380;-83
2022/04/01 06:50:01;;;;;;;6.53;1.52;;;18.60;97.50;;;;;;4951629;29;20388;-87
2022/04/01 06:52:29;;;;;;;6.55;1.70;;;18.60;97.80;;;;;;4951877;29;20388;-85
2022/04/01 06:54:57;;;;;;;5.97;1.60;;;18.40;98.50;;;;;;4951557;29;20440;-83
2022/04/01 06:57:24;;;;;;;5.47;1.80;;;18.40;98.10;;;;;;4951765;29;20395;-85
2022/04/01 06:59:52;;;;;;;5.32;1.70;;;18.30;98.00;;;;;;4951988;29;20397;-85
2022/04/01 07:02:19;;;;;;;5.50;1.50;;;18.30;98.00;;;;;;4935264;29;20387;-84
2022/04/01 07:04:46;;;;;;;8.50;1.60;;;18.20;97.80;;;;;;4951405;29;20399;-84
2022/04/01 07:07:13;;;;;;;8.02;1.75;;;18.30;97.90;;;;;;4935409;29;20384;-83
2022/04/01 07:09:40;;;;;;;6.65;1.80;;;18.30;97.50;;;;;;4996690;28;20383;-84
2022/04/01 07:12:07;;;;;;;7.82;1.70;;;18.30;97.50;;;;;;5011888;28;20367;-85
2022/04/01 07:14:35;;;;;;;4.93;1.40;;;18.40;97.30;;;;;;5011526;28;20466;-84
2022/04/01 07:17:02;;;;;;;6.70;1.70;;;18.30;97.00;;;;;;4994201;28;20808;-84
2022/04/01 07:19:29;;;;;;;5.85;1.60;;;18.30;97.20;;;;;;5011472;28;20407;-83
2022/04/01 07:21:56;;;;;;;6.93;1.50;;;18.20;97.20;;;;;;5011202;28;20422;-82
2022/04/01 07:24:25;;;;;;;8.10;1.58;;;18.10;97.20;;;;;;5011313;28;20387;-80
2022/04/01 07:26:52;;;;;;;5.63;1.60;;;18.10;97.40;;;;;;5011110;28;20475;-84
2022/04/01 07:29:19;;;;;;;7.13;1.50;;;18.00;97.60;;;;;;5011101;28;20383;-83
2022/04/01 07:34:43;;;;;;;7.32;1.70;;;16.70;97.80;;;;;;5011177;28;20418;-83
2022/04/01 07:37:12;;;;;;;7.82;1.70;;;17.80;98.00;;;;;;5011215;28;20758;-82
2022/04/01 07:39:39;;;;;;;5.72;1.63;;;17.70;98.80;;;;;;4993261;28;20799;-83
2022/04/01 07:42:06;;;;;;;7.60;1.70;;;17.50;99.00;;;;;;5010886;28;20370;-82
2022/04/01 07:44:34;;;;;;;6.18;1.70;;;17.40;99.30;;;;;;5027463;28;20401;-83
2022/04/01 07:47:02;;;;;;;5.10;1.55;;;17.40;99.80;;;;;;5030625;28;20782;-82
2022/04/01 07:49:30;;;;;;;5.95;1.52;;;17.30;99.90;;;;;;5031643;28;20464;-83
2022/04/01 07:51:57;;;;;;;7.32;1.63;;;17.30;99.80;;;;;;5031178;28;20385;-80
2022/04/01 07:54:24;;;;;;;7.20;1.50;;;17.30;99.40;;;;;;5031745;28;20421;-81
2022/04/01 07:56:51;;;;;;;7.72;1.60;;;17.20;99.60;;;;;;5031615;28;20877;-82
2022/04/01 07:59:20;;;;;;;5.97;1.40;;;17.20;99.90;;;;;;5031332;28;20419;-82
2022/04/01 08:01:47;;;;;;;5.13;1.45;;;17.20;99.90;;;;;;5030642;28;20374;-82
2022/04/01 08:04:14;;;;;;;5.80;1.60;;;17.10;99.90;;;;;;5030709;28;20390;-84
2022/04/01 08:06:41;;;;;;;6.57;1.50;;;17.00;99.90;;;;;;5030674;28;20455;-83
2022/04/01 08:09:08;;;;;;;6.25;1.50;;;17.00;99.90;;;;;;5030164;28;20373;-81
2022/04/01 08:11:36;;;;;;;5.35;1.45;;;17.00;99.90;;;;;;5030283;28;20834;-82
2022/04/01 08:14:03;;;;;;;6.72;1.55;;;17.00;99.90;;;;;;5030247;28;20393;-84
2022/04/01 08:16:31;;;;;;;7.87;1.63;;;17.00;99.90;;;;;;5030961;28;20451;-84
2022/04/01 08:18:58;;;;;;;5.65;1.40;;;16.90;99.90;;;;;;5034128;28;20402;-83
2022/04/01 08:21:26;;;;;;;6.18;1.60;;;16.90;99.90;;;;;;5032064;28;20400;-82
2022/04/01 08:23:53;;;;;;;7.25;1.40;;;16.90;99.90;;;;;;5030129;28;20416;-82
2022/04/01 08:26:20;;;;;;;6.30;1.50;;;16.80;99.90;;;;;;5029853;28;20376;-83
2022/04/01 08:28:47;;;;;;;7.63;1.52;;;16.80;99.90;;;;;;5030116;28;20381;-83
2022/04/01 08:31:14;;;;;;;6.32;1.60;;;16.80;99.90;;;;;;5029864;28;20906;-83
2022/04/01 08:33:41;;;;;;;5.23;1.43;;;16.80;99.90;;;;;;5029852;28;20850;-82
2022/04/01 08:36:09;;;;;;;6.78;1.67;;;16.30;99.90;;;;;;5029725;28;20377;-81
2022/04/01 08:38:36;;;;;;;6.00;1.50;;;16.80;99.90;;;;;;5029347;28;20518;-84
2022/04/01 08:41:03;;;;;;;5.47;1.48;;;16.80;99.90;;;;;;5029399;28;20377;-81
2022/04/01 08:43:33;;;;;;;7.37;1.70;;;16.70;99.90;;;;;;5029893;28;20397;-82
2022/04/01 08:46:04;;;;;;;5.40;1.70;;;16.70;99.90;;;;;;5011916;28;20885;-82
2022/04/01 08:48:33;;;;;;;6.50;1.40;;;16.70;99.90;;;;;;5029611;28;20465;-83
2022/04/01 08:51:00;;;;;;;5.85;1.52;;;16.70;99.90;;;;;;5029306;28;20374;-83
2022/04/01 08:53:27;;;;;;;5.35;1.30;;;16.70;99.90;;;;;;5029512;28;20381;-83
2022/04/01 08:55:57;;;;;;;7.03;1.48;;;16.80;99.90;;;;;;5029243;28;20512;-83
2022/04/01 08:58:25;;;;;;;5.15;1.58;;;16.80;99.90;;;;;;5029191;28;20408;-82
2022/04/01 09:00:53;;;;;;;6.37;1.57;;;16.70;99.90;;;;;;5029339;28;20373;-81
2022/04/01 09:03:24;;;;;;;6.60;1.38;;;16.70;99.90;;;;;;5029408;28;20836;-81
2022/04/01 09:06:00;;;;;;;5.25;1.58;;;16.70;99.90;;;;;;5030121;28;20411;-81
2022/04/01 09:08:33;;;;;;;6.43;1.40;;;16.70;99.90;;;;;;5029110;28;20372;-81
2022/04/01 09:11:03;;;;;;;5.78;1.45;;;16.40;99.90;;;;;;5029006;28;20467;-82
2022/04/01 09:13:49;;;;;;;6.18;1.60;;;16.50;99.90;;;;;;5029018;28;20460;-81
2022/04/01 09:16:33;;;;;;;6.05;1.60;;;16.50;99.90;;;;;;5029125;28;20370;-81
2022/04/01 09:19:03;;;;;;;6.15;1.45;;;16.60;99.90;;;;;;5028896;28;20409;-81
2022/04/01 09:21:32;;;;;;;7.00;1.63;;;16.60;99.90;;;;;;5029393;28;20368;-81
2022/04/01 09:24:01;;;;;;;7.13;1.48;;;16.60;99.90;;;;;;5029145;28;20388;-82
2022/04/01 09:26:32;;;;;;;7.30;1.53;;;16.50;99.90;;;;;;5028901;28;20380;-82
2022/04/01 09:29:06;;;;;;;7.00;1.73;;;16.40;99.90;;;;;;5028948;28;20413;-84
2022/04/01 09:31:39;;;;;;;6.85;1.60;;;16.40;99.90;;;;;;5029082;28;20377;-82
2022/04/01 09:34:09;;;;;;;7.40;1.67;;;16.50;99.90;;;;;;5028816;28;20397;-82
2022/04/01 09:36:38;;;;;;;7.50;1.60;;;16.50;99.90;;;;;;5011063;28;20439;-83
2022/04/01 09:39:12;;;;;;;7.88;1.55;;;16.50;99.90;;;;;;5028603;28;20409;-83
2022/04/01 09:41:45;;;;;;;6.37;1.60;;;16.40;99.90;;;;;;5028655;28;20382;-84
2022/04/01 09:44:26;;;;;;;5.82;1.55;;;16.50;99.90;;;;;;5028576;28;20485;-83
2022/04/01 09:46:56;;;;;;;6.57;1.60;;;16.30;99.90;;;;;;5028728;28;20357;-83
2022/04/01 09:49:39;;;;;;;7.28;1.73;;;16.40;99.90;;;;;;5028632;28;20374;-84
2022/04/01 09:52:15;;;;;;;6.93;1.75;;;16.40;99.90;;;;;;5032327;28;20373;-82
2022/04/01 09:54:57;;;;;;;6.87;1.47;;;16.40;99.90;;;;;;5032560;28;20442;-83
2022/04/01 09:57:25;;;;;;;6.63;1.65;;;16.40;99.90;;;;;;5032632;28;20841;-81
2022/04/01 09:59:53;;;;;;;7.57;1.80;;;16.50;99.90;;;;;;5048226;28;20448;-81
2022/04/01 10:02:21;;;;;;;6.37;1.50;;;16.50;99.90;;;;;;5014752;28;20389;-82
2022/04/01 10:04:49;;;;;;;7.90;1.70;;;16.50;99.90;;;;;;5032471;28;20385;-82
2022/04/01 10:07:21;;;;;;;5.73;1.63;;;16.40;99.90;;;;;;5032909;28;20465;-81
2022/04/01 10:09:50;;;;;;;6.45;1.55;;;16.50;99.90;;;;;;5033879;28;20369;-81
2022/04/01 10:12:19;;;;;;;5.47;1.65;;;16.40;99.90;;;;;;5037366;28;20789;-82
2022/04/01 10:14:48;;;;;;;7.47;1.60;;;16.40;99.90;;;;;;5032465;28;20405;-82
2022/04/01 10:17:16;;;;;;;6.55;1.90;;;16.40;99.90;;;;;;5032172;28;20431;-81
2022/04/01 10:19:50;;;;;;;6.43;1.60;;;16.30;99.90;;;;;;5032160;28;20428;-81
2022/04/01 10:22:17;;;;;;;5.68;1.60;;;16.30;99.90;;;;;;5032137;28;20445;-83
2022/04/01 10:25:14;;;;;;;6.88;1.90;;;16.30;99.90;;;;;;5032019;28;20391;-81
2022/04/01 10:27:47;;;;;;;7.13;1.60;;;16.40;99.90;;;;;;5031890;28;20382;-82
2022/04/01 10:30:17;;;;;;;7.18;1.80;;;16.30;99.90;;;;;;5014112;28;20419;-83
2022/04/01 10:32:46;;;;;;;6.10;1.60;;;16.30;99.90;;;;;;5032193;28;20397;-83
2022/04/01 10:35:29;;;;;;;5.45;1.42;;;16.30;99.90;;;;;;5031918;28;20798;-84
2022/04/01 10:38:16;;;;;;;7.97;1.75;;;16.20;99.80;;;;;;5032115;28;20489;-82
2022/04/01 10:40:51;;;;;;;7.43;1.70;;;16.10;99.90;;;;;;5032122;28;20846;-82
2022/04/01 10:43:29;;;;;;;4.82;1.35;;;16.10;99.90;;;;;;5031574;28;20959;-82
2022/04/01 10:46:04;;;;;;;7.40;1.83;;;16.10;99.90;;;;;;5031504;28;20432;-81
2022/04/01 10:51:37;;;;;;;6.63;1.70;;;16.10;99.90;;;;;;5031950;28;20713;-82
2022/04/01 10:54:13;;;;;;;7.17;1.77;;;16.00;99.90;;;;;;5031641;28;20512;-81
2022/04/01 10:57:06;;;;;;;5.28;1.50;;;16.00;99.90;;;;;;5032134;28;20444;-82
2022/04/01 10:59:45;;;;;;;5.97;1.67;;;16.00;99.90;;;;;;5031490;28;20769;-82
2022/04/01 11:02:20;;;;;;;5.15;1.60;;;16.00;99.90;;;;;;5030544;28;20455;-81
2022/04/01 11:04:51;;;;;;;7.70;1.73;;;16.00;99.90;;;;;;5031818;28;20378;-82
2022/04/01 11:07:25;;;;;;;7.43;1.60;;;15.90;99.90;;;;;;5031186;28;20891;-82
2022/04/01 11:09:51;;;;;;;6.32;1.85;;;15.90;99.90;;;;;;5031787;28;20757;-81
2022/04/01 11:12:19;;;;;;;8.00;1.88;;;15.80;99.90;;;;;;5031490;28;20466;-83
2022/04/01 11:15:08;;;;;;;5.50;1.67;;;15.80;99.90;;;;;;5031713;28;20378;-80
2022/04/01 11:17:35;;;;;;;6.93;1.80;;;15.90;99.90;;;;;;5030952;28;20767;-82
2022/04/01 11:20:21;;;;;;;8.20;1.70;;;15.90;99.90;;;;;;5031050;28;20407;-83
2022/04/01 11:22:58;;;;;;;7.10;1.70;;;15.90;99.90;;;;;;5031448;28;20396;-82
2022/04/01 11:25:25;;;;;;;8.98;1.90;;;15.90;99.90;;;;;;5031589;28;20714;-80
2022/04/01 11:28:02;;;;;;;7.53;1.77;;;15.90;99.90;;;;;;5031145;28;20865;-82
2022/04/01 11:30:29;;;;;;;8.65;1.80;;;15.80;99.90;;;;;;5030854;28;20381;-81
2022/04/01 11:32:58;;;;;;;7.87;1.87;;;15.80;99.90;;;;;;5030893;28;20477;-82
2022/04/01 11:35:28;;;;;;;6.75;1.70;;;15.70;99.90;;;;;;5030785;28;20374;-82
2022/04/01 11:37:59;;;;;;;7.53;1.75;;;15.70;99.90;;;;;;5030670;28;20429;-82
2022/04/01 11:40:28;;;;;;;8.50;1.70;;;15.70;99.90;;;;;;5030672;28;20423;-82
2022/04/01 11:43:10;;;;;;;7.43;1.90;;;15.80;99.90;;;;;;5030441;28;20391;-81
2022/04/01 11:46:06;;;;;;;8.05;1.70;;;15.70;99.90;;;;;;5030679;28;20429;-81
2022/04/01 11:48:38;;;;;;;6.53;1.67;;;15.80;99.90;;;;;;5023591;28;20784;-83
2022/04/01 11:51:16;;;;;;;10.50;2.10;;;15.70;99.90;;;;;;5030438;28;20738;-80
2022/04/01 11:53:50;;;;;;;6.75;1.70;;;15.80;99.90;;;;;;5030962;28;20397;-82
2022/04/01 11:56:26;;;;;;;7.07;1.90;;;15.90;99.90;;;;;;5030417;28;20412;-83
2022/04/01 11:59:02;;;;;;;7.97;1.88;;;16.00;99.90;;;;;;5031022;28;20397;-82
2022/04/01 12:01:54;;;;;;;6.22;1.65;;;16.00;99.90;;;;;;5030492;28;20502;-82
2022/04/01 12:04:35;;;;;;;8.52;1.70;;;16.00;99.80;;;;;;5037792;28;20385;-82
2022/04/01 12:10:28;;;;;;;8.25;1.92;;;16.10;99.90;;;;;;5030616;28;20461;-81
2022/04/01 12:13:00;;;;;;;7.07;1.80;;;16.00;99.90;;;;;;5030957;28;20358;-82
2022/04/01 12:15:45;;;;;;;5.93;1.80;;;16.00;99.90;;;;;;5029105;28;20909;-81
2022/04/01 12:18:17;;;;;;;9.25;1.83;;;16.00;99.80;;;;;;5030032;28;20409;-83
2022/04/01 12:20:46;;;;;;;7.50;1.73;;;16.00;99.90;;;;;;5030108;28;20416;-82
2022/04/01 12:23:14;;;;;;;6.30;1.65;;;16.00;99.90;;;;;;5030355;28;20388;-82
2022/04/01 12:25:44;;;;;;;8.30;1.77;;;15.90;99.90;;;;;;5031621;28;20395;-82
2022/04/01 12:28:14;;;;;;;7.00;1.95;;;15.90;99.90;;;;;;5033079;28;20407;-82
2022/04/01 12:30:45;;;;;;;7.40;1.70;;;15.90;99.90;;;;;;5035531;28;20380;-83
2022/04/01 12:33:20;;;;;;;6.43;1.70;;;15.80;99.90;;;;;;5026523;28;20389;-81
2022/04/01 12:35:56;;;;;;;8.18;1.70;;;15.80;99.90;;;;;;5045304;28;20380;-80
2022/04/01 12:38:25;;;;;;;7.03;1.70;;;15.80;99.90;;;;;;5042527;28;20415;-81
2022/04/01 12:40:54;;;;;;;7.13;1.70;;;15.80;99.90;;;;;;5047320;28;20384;-82
2022/04/01 12:43:32;;;;;;;7.07;1.60;;;15.80;99.90;;;;;;5048634;28;20923;-82
2022/04/01 12:46:09;;;;;;;7.45;1.70;;;15.70;99.90;;;;;;5048599;28;20393;-81
2022/04/01 12:48:48;;;;;;;5.28;1.65;;;15.70;99.90;;;;;;5063758;28;20380;-80
2022/04/01 12:51:26;;;;;;;7.47;1.60;;;15.70;99.90;;;;;;5046338;28;20377;-81
2022/04/01 12:53:53;;;;;;;8.65;1.77;;;15.60;99.90;;;;;;5045185;28;20376;-83
2022/04/01 12:56:23;;;;;;;5.60;1.67;;;15.60;99.90;;;;;;5033165;28;20463;-81
2022/04/01 12:58:58;;;;;;;6.82;1.70;;;15.60;99.90;;;;;;5030404;28;20489;-84
2022/04/01 13:01:27;;;;;;;6.85;1.70;;;15.70;99.90;;;;;;5029604;28;20762;-81
2022/04/01 13:03:56;;;;;;;7.13;1.80;;;15.70;99.90;;;;;;5030328;28;20384;-81
2022/04/01 13:06:25;;;;;;;6.32;1.67;;;15.80;99.90;;;;;;5030597;28;20408;-81
2022/04/01 13:09:10;;;;;;;8.77;1.70;;;15.80;99.90;;;;;;5030028;28;20476;-83
2022/04/01 13:11:46;;;;;;;6.20;1.70;;;15.90;99.90;;;;;;5029319;28;20931;-82
2022/04/01 13:14:21;;;;;;;9.93;1.70;;;15.90;99.90;;;;;;5029438;28;20443;-83
2022/04/01 13:16:50;;;;;;;6.13;1.38;;;15.90;99.90;;;;;;5029928;28;20463;-82
2022/04/01 13:19:23;;;;;;;8.70;1.50;;;15.90;99.90;;;;;;5029559;28;20551;-80